sensor_id;sensor_type;location;lat;lon;timestamp;temperature;humidity
38684;DHT22;24910;53.248;-6.134;2023-01-08T00:00:34;9.80;79.60
38684;DHT22;24910;53.248;-6.134;2023-01-08T00:03:03;9.80;79.50
38684;DHT22;24910;53.248;-6.134;2023-01-08T00:05:33;9.80;79.50
38684;DHT22;24910;53.248;-6.134;2023-01-08T00:08:02;9.80;79.40
38684;DHT22;24910;53.248;-6.134;2023-01-08T00:10:31;9.80;79.30
38684;DHT22;24910;53.248;-6.134;2023-01-08T00:13:02;9.80;79.30
38684;DHT22;24910;53.248;-6.134;2023-01-08T00:15:32;9.80;79.10
38684;DHT22;24910;53.248;-6.134;2023-01-08T00:18:01;9.80;79.10
38684;DHT22;24910;53.248;-6.134;2023-01-08T00:20:33;9.80;79.00
38684;DHT22;24910;53.248;-6.134;2023-01-08T00:23:02;9.80;79.00
38684;DHT22;24910;53.248;-6.134;2023-01-08T00:25:31;9.80;78.90
38684;DHT22;24910;53.248;-6.134;2023-01-08T00:28:02;9.80;78.90
38684;DHT22;24910;53.248;-6.134;2023-01-08T00:30:31;9.80;78.80
38684;DHT22;24910;53.248;-6.134;2023-01-08T00:33:00;9.80;78.70
38684;DHT22;24910;53.248;-6.134;2023-01-08T00:35:29;9.80;78.70
38684;DHT22;24910;53.248;-6.134;2023-01-08T00:37:58;9.80;78.50
38684;DHT22;24910;53.248;-6.134;2023-01-08T00:40:27;9.80;78.30
38684;DHT22;24910;53.248;-6.134;2023-01-08T00:42:56;9.80;78.20
38684;DHT22;24910;53.248;-6.134;2023-01-08T00:45:27;9.80;78.00
38684;DHT22;24910;53.248;-6.134;2023-01-08T00:47:56;9.80;77.90
38684;DHT22;24910;53.248;-6.134;2023-01-08T00:50:25;9.80;78.80
38684;DHT22;24910;53.248;-6.134;2023-01-08T00:52:54;9.80;78.70
38684;DHT22;24910;53.248;-6.134;2023-01-08T00:55:23;9.80;77.70
38684;DHT22;24910;53.248;-6.134;2023-01-08T00:57:53;9.80;77.70
38684;DHT22;24910;53.248;-6.134;2023-01-08T01:00:23;9.80;78.50
38684;DHT22;24910;53.248;-6.134;2023-01-08T01:02:55;9.80;77.70
38684;DHT22;24910;53.248;-6.134;2023-01-08T01:05:24;9.80;77.90
38684;DHT22;24910;53.248;-6.134;2023-01-08T01:07:53;9.80;77.90
38684;DHT22;24910;53.248;-6.134;2023-01-08T01:10:23;9.70;77.90
38684;DHT22;24910;53.248;-6.134;2023-01-08T01:12:52;9.70;78.00
38684;DHT22;24910;53.248;-6.134;2023-01-08T01:15:21;9.70;78.00
38684;DHT22;24910;53.248;-6.134;2023-01-08T01:17:50;9.70;78.00
38684;DHT22;24910;53.248;-6.134;2023-01-08T01:20:21;9.70;78.00
38684;DHT22;24910;53.248;-6.134;2023-01-08T01:22:50;9.70;77.90
38684;DHT22;24910;53.248;-6.134;2023-01-08T01:25:19;9.70;77.90
38684;DHT22;24910;53.248;-6.134;2023-01-08T01:27:48;9.70;77.80
38684;DHT22;24910;53.248;-6.134;2023-01-08T01:30:17;9.70;77.90
38684;DHT22;24910;53.248;-6.134;2023-01-08T01:32:46;9.70;77.80
38684;DHT22;24910;53.248;-6.134;2023-01-08T01:35:15;9.70;78.80
38684;DHT22;24910;53.248;-6.134;2023-01-08T01:37:46;9.70;78.00
38684;DHT22;24910;53.248;-6.134;2023-01-08T01:40:15;9.70;78.10
38684;DHT22;24910;53.248;-6.134;2023-01-08T01:42:44;9.70;78.20
38684;DHT22;24910;53.248;-6.134;2023-01-08T01:45:16;9.70;78.30
38684;DHT22;24910;53.248;-6.134;2023-01-08T01:47:48;9.70;78.30
38684;DHT22;24910;53.248;-6.134;2023-01-08T01:50:20;9.70;78.40
38684;DHT22;24910;53.248;-6.134;2023-01-08T01:52:56;9.70;78.30
38684;DHT22;24910;53.248;-6.134;2023-01-08T01:55:27;9.70;78.30
38684;DHT22;24910;53.248;-6.134;2023-01-08T01:58:00;9.60;78.10
38684;DHT22;24910;53.248;-6.134;2023-01-08T02:00:32;9.60;78.10
38684;DHT22;24910;53.248;-6.134;2023-01-08T02:03:01;9.60;78.10
38684;DHT22;24910;53.248;-6.134;2023-01-08T02:05:38;9.60;78.00
38684;DHT22;24910;53.248;-6.134;2023-01-08T02:08:12;9.60;78.00
38684;DHT22;24910;53.248;-6.134;2023-01-08T02:10:48;9.60;77.80
38684;DHT22;24910;53.248;-6.134;2023-01-08T02:13:22;9.50;77.70
38684;DHT22;24910;53.248;-6.134;2023-01-08T02:15:57;9.50;77.50
38684;DHT22;24910;53.248;-6.134;2023-01-08T02:18:33;9.50;77.30
38684;DHT22;24910;53.248;-6.134;2023-01-08T02:21:09;9.50;77.10
38684;DHT22;24910;53.248;-6.134;2023-01-08T02:23:46;9.50;77.10
38684;DHT22;24910;53.248;-6.134;2023-01-08T02:26:21;9.50;77.00
38684;DHT22;24910;53.248;-6.134;2023-01-08T02:28:54;9.50;77.00
38684;DHT22;24910;53.248;-6.134;2023-01-08T02:31:26;9.50;77.00
38684;DHT22;24910;53.248;-6.134;2023-01-08T02:33:56;9.50;77.10
38684;DHT22;24910;53.248;-6.134;2023-01-08T02:36:31;9.40;76.90
38684;DHT22;24910;53.248;-6.134;2023-01-08T02:39:19;9.40;76.90
38684;DHT22;24910;53.248;-6.134;2023-01-08T02:42:03;9.40;76.80
38684;DHT22;24910;53.248;-6.134;2023-01-08T02:44:41;9.40;76.80
38684;DHT22;24910;53.248;-6.134;2023-01-08T02:47:20;9.40;76.70
38684;DHT22;24910;53.248;-6.134;2023-01-08T02:49:53;9.40;76.50
38684;DHT22;24910;53.248;-6.134;2023-01-08T02:52:26;9.40;76.40
38684;DHT22;24910;53.248;-6.134;2023-01-08T02:54:58;9.30;76.10
38684;DHT22;24910;53.248;-6.134;2023-01-08T02:57:32;9.40;76.90
38684;DHT22;24910;53.248;-6.134;2023-01-08T03:00:02;9.30;75.80
38684;DHT22;24910;53.248;-6.134;2023-01-08T03:02:32;9.30;75.70
38684;DHT22;24910;53.248;-6.134;2023-01-08T03:05:08;9.30;75.50
38684;DHT22;24910;53.248;-6.134;2023-01-08T03:07:39;9.30;75.20
38684;DHT22;24910;53.248;-6.134;2023-01-08T03:10:09;9.30;75.00
38684;DHT22;24910;53.248;-6.134;2023-01-08T03:12:49;9.30;74.70
38684;DHT22;24910;53.248;-6.134;2023-01-08T03:15:24;9.30;74.40
38684;DHT22;24910;53.248;-6.134;2023-01-08T03:17:57;9.30;74.20
38684;DHT22;24910;53.248;-6.134;2023-01-08T03:20:29;9.30;74.00
38684;DHT22;24910;53.248;-6.134;2023-01-08T03:23:04;9.30;73.70
38684;DHT22;24910;53.248;-6.134;2023-01-08T03:25:38;9.30;73.50
38684;DHT22;24910;53.248;-6.134;2023-01-08T03:28:12;9.30;73.40
38684;DHT22;24910;53.248;-6.134;2023-01-08T03:30:43;9.30;73.30
38684;DHT22;24910;53.248;-6.134;2023-01-08T03:33:15;9.20;73.10
38684;DHT22;24910;53.248;-6.134;2023-01-08T03:35:46;9.20;72.90
38684;DHT22;24910;53.248;-6.134;2023-01-08T03:38:21;9.20;72.80
38684;DHT22;24910;53.248;-6.134;2023-01-08T03:40:55;9.20;72.60
38684;DHT22;24910;53.248;-6.134;2023-01-08T03:43:26;9.20;72.60
38684;DHT22;24910;53.248;-6.134;2023-01-08T03:45:57;9.20;72.50
38684;DHT22;24910;53.248;-6.134;2023-01-08T03:48:30;9.20;72.40
38684;DHT22;24910;53.248;-6.134;2023-01-08T03:51:00;9.20;72.50
38684;DHT22;24910;53.248;-6.134;2023-01-08T03:53:29;9.20;72.40
38684;DHT22;24910;53.248;-6.134;2023-01-08T03:55:59;9.20;72.20
38684;DHT22;24910;53.248;-6.134;2023-01-08T03:58:29;9.20;72.20
38684;DHT22;24910;53.248;-6.134;2023-01-08T04:00:59;9.20;72.20
38684;DHT22;24910;53.248;-6.134;2023-01-08T04:03:29;9.20;72.20
38684;DHT22;24910;53.248;-6.134;2023-01-08T04:05:58;9.20;72.30
38684;DHT22;24910;53.248;-6.134;2023-01-08T04:08:27;9.20;72.30
38684;DHT22;24910;53.248;-6.134;2023-01-08T04:10:56;9.10;72.30
38684;DHT22;24910;53.248;-6.134;2023-01-08T04:13:25;9.10;72.40
38684;DHT22;24910;53.248;-6.134;2023-01-08T04:15:56;9.20;72.60
38684;DHT22;24910;53.248;-6.134;2023-01-08T04:18:25;9.10;72.60
38684;DHT22;24910;53.248;-6.134;2023-01-08T04:20:54;9.10;72.70
38684;DHT22;24910;53.248;-6.134;2023-01-08T04:23:23;9.10;72.80
38684;DHT22;24910;53.248;-6.134;2023-01-08T04:25:53;9.10;72.90
38684;DHT22;24910;53.248;-6.134;2023-01-08T04:28:22;9.10;73.00
38684;DHT22;24910;53.248;-6.134;2023-01-08T04:30:51;9.10;73.00
38684;DHT22;24910;53.248;-6.134;2023-01-08T04:33:21;9.00;72.90
38684;DHT22;24910;53.248;-6.134;2023-01-08T04:35:52;9.10;73.00
38684;DHT22;24910;53.248;-6.134;2023-01-08T04:38:21;9.10;73.00
38684;DHT22;24910;53.248;-6.134;2023-01-08T04:40:54;9.10;73.10
38684;DHT22;24910;53.248;-6.134;2023-01-08T04:43:23;9.10;73.10
38684;DHT22;24910;53.248;-6.134;2023-01-08T04:45:56;9.10;73.20
38684;DHT22;24910;53.248;-6.134;2023-01-08T04:48:28;9.10;73.20
38684;DHT22;24910;53.248;-6.134;2023-01-08T04:50:58;9.10;73.20
38684;DHT22;24910;53.248;-6.134;2023-01-08T04:53:28;9.10;73.20
38684;DHT22;24910;53.248;-6.134;2023-01-08T04:56:02;9.10;73.20
38684;DHT22;24910;53.248;-6.134;2023-01-08T04:58:32;9.20;73.30
38684;DHT22;24910;53.248;-6.134;2023-01-08T05:01:09;9.20;73.30
38684;DHT22;24910;53.248;-6.134;2023-01-08T05:03:40;9.20;73.20
38684;DHT22;24910;53.248;-6.134;2023-01-08T05:06:09;9.20;73.20
38684;DHT22;24910;53.248;-6.134;2023-01-08T05:08:38;9.20;73.30
38684;DHT22;24910;53.248;-6.134;2023-01-08T05:11:07;9.20;73.40
38684;DHT22;24910;53.248;-6.134;2023-01-08T05:13:36;9.20;73.40
38684;DHT22;24910;53.248;-6.134;2023-01-08T05:16:06;9.20;73.40
38684;DHT22;24910;53.248;-6.134;2023-01-08T05:18:35;9.20;73.40
38684;DHT22;24910;53.248;-6.134;2023-01-08T05:21:06;9.20;73.50
38684;DHT22;24910;53.248;-6.134;2023-01-08T05:23:35;9.30;73.60
38684;DHT22;24910;53.248;-6.134;2023-01-08T05:26:05;9.30;73.70
38684;DHT22;24910;53.248;-6.134;2023-01-08T05:28:34;9.30;73.90
38684;DHT22;24910;53.248;-6.134;2023-01-08T05:31:03;9.30;74.10
38684;DHT22;24910;53.248;-6.134;2023-01-08T05:33:32;9.30;74.30
38684;DHT22;24910;53.248;-6.134;2023-01-08T05:36:05;9.30;74.50
38684;DHT22;24910;53.248;-6.134;2023-01-08T05:38:35;9.30;74.70
38684;DHT22;24910;53.248;-6.134;2023-01-08T05:41:04;9.30;74.90
38684;DHT22;24910;53.248;-6.134;2023-01-08T05:43:34;9.30;75.20
38684;DHT22;24910;53.248;-6.134;2023-01-08T05:46:04;9.30;75.20
38684;DHT22;24910;53.248;-6.134;2023-01-08T05:48:34;9.30;75.30
38684;DHT22;24910;53.248;-6.134;2023-01-08T05:51:04;9.30;75.40
38684;DHT22;24910;53.248;-6.134;2023-01-08T05:53:34;9.30;75.50
38684;DHT22;24910;53.248;-6.134;2023-01-08T05:56:05;9.30;75.60
38684;DHT22;24910;53.248;-6.134;2023-01-08T05:58:36;9.30;75.70
38684;DHT22;24910;53.248;-6.134;2023-01-08T06:01:07;9.30;75.70
38684;DHT22;24910;53.248;-6.134;2023-01-08T06:03:37;9.30;75.70
38684;DHT22;24910;53.248;-6.134;2023-01-08T06:06:08;9.30;75.60
38684;DHT22;24910;53.248;-6.134;2023-01-08T06:08:39;9.30;75.50
38684;DHT22;24910;53.248;-6.134;2023-01-08T06:11:09;9.30;75.50
38684;DHT22;24910;53.248;-6.134;2023-01-08T06:13:41;9.30;75.40
38684;DHT22;24910;53.248;-6.134;2023-01-08T06:16:11;9.20;75.30
38684;DHT22;24910;53.248;-6.134;2023-01-08T06:18:40;9.20;75.30
38684;DHT22;24910;53.248;-6.134;2023-01-08T06:21:09;9.20;75.30
38684;DHT22;24910;53.248;-6.134;2023-01-08T06:23:41;9.20;75.30
38684;DHT22;24910;53.248;-6.134;2023-01-08T06:26:10;9.20;75.30
38684;DHT22;24910;53.248;-6.134;2023-01-08T06:28:39;9.20;75.30
38684;DHT22;24910;53.248;-6.134;2023-01-08T06:31:08;9.20;76.30
38684;DHT22;24910;53.248;-6.134;2023-01-08T06:33:37;9.10;75.60
38684;DHT22;24910;53.248;-6.134;2023-01-08T06:36:07;9.10;75.60
38684;DHT22;24910;53.248;-6.134;2023-01-08T06:38:36;9.10;75.80
38684;DHT22;24910;53.248;-6.134;2023-01-08T06:41:08;9.10;75.90
38684;DHT22;24910;53.248;-6.134;2023-01-08T06:43:38;9.10;75.90
38684;DHT22;24910;53.248;-6.134;2023-01-08T06:46:08;9.00;75.90
38684;DHT22;24910;53.248;-6.134;2023-01-08T06:48:37;9.00;76.00
38684;DHT22;24910;53.248;-6.134;2023-01-08T06:51:07;9.00;76.10
38684;DHT22;24910;53.248;-6.134;2023-01-08T06:53:36;9.00;76.20
38684;DHT22;24910;53.248;-6.134;2023-01-08T06:56:07;9.00;76.30
38684;DHT22;24910;53.248;-6.134;2023-01-08T06:58:37;9.00;76.40
38684;DHT22;24910;53.248;-6.134;2023-01-08T07:01:12;9.00;76.50
38684;DHT22;24910;53.248;-6.134;2023-01-08T07:03:42;9.00;76.60
38684;DHT22;24910;53.248;-6.134;2023-01-08T07:06:14;9.00;76.60
38684;DHT22;24910;53.248;-6.134;2023-01-08T07:08:44;9.10;76.70
38684;DHT22;24910;53.248;-6.134;2023-01-08T07:11:15;9.10;76.70
38684;DHT22;24910;53.248;-6.134;2023-01-08T07:13:44;9.10;76.60
38684;DHT22;24910;53.248;-6.134;2023-01-08T07:16:14;9.20;76.70
38684;DHT22;24910;53.248;-6.134;2023-01-08T07:18:43;9.20;76.60
38684;DHT22;24910;53.248;-6.134;2023-01-08T07:21:12;9.20;76.60
38684;DHT22;24910;53.248;-6.134;2023-01-08T07:23:41;9.20;76.50
38684;DHT22;24910;53.248;-6.134;2023-01-08T07:26:13;9.20;76.50
38684;DHT22;24910;53.248;-6.134;2023-01-08T07:28:42;9.30;76.50
38684;DHT22;24910;53.248;-6.134;2023-01-08T07:31:11;9.30;76.50
38684;DHT22;24910;53.248;-6.134;2023-01-08T07:33:40;9.30;76.50
38684;DHT22;24910;53.248;-6.134;2023-01-08T07:36:09;9.30;76.50
38684;DHT22;24910;53.248;-6.134;2023-01-08T07:38:38;9.30;76.50
38684;DHT22;24910;53.248;-6.134;2023-01-08T07:41:07;9.30;76.60
38684;DHT22;24910;53.248;-6.134;2023-01-08T07:43:38;9.30;76.60
38684;DHT22;24910;53.248;-6.134;2023-01-08T07:46:09;9.30;76.80
38684;DHT22;24910;53.248;-6.134;2023-01-08T07:48:38;9.20;77.10
38684;DHT22;24910;53.248;-6.134;2023-01-08T07:51:08;9.20;77.40
38684;DHT22;24910;53.248;-6.134;2023-01-08T07:53:37;9.20;77.70
38684;DHT22;24910;53.248;-6.134;2023-01-08T07:56:07;9.20;78.10
38684;DHT22;24910;53.248;-6.134;2023-01-08T07:58:38;9.10;78.30
38684;DHT22;24910;53.248;-6.134;2023-01-08T08:01:09;9.10;78.50
38684;DHT22;24910;53.248;-6.134;2023-01-08T08:03:39;9.10;78.40
38684;DHT22;24910;53.248;-6.134;2023-01-08T08:06:09;9.10;78.50
38684;DHT22;24910;53.248;-6.134;2023-01-08T08:08:38;9.10;78.70
38684;DHT22;24910;53.248;-6.134;2023-01-08T08:11:09;9.00;78.90
38684;DHT22;24910;53.248;-6.134;2023-01-08T08:13:39;9.00;79.10
38684;DHT22;24910;53.248;-6.134;2023-01-08T08:16:11;9.00;79.20
38684;DHT22;24910;53.248;-6.134;2023-01-08T08:18:41;8.90;79.50
38684;DHT22;24910;53.248;-6.134;2023-01-08T08:21:10;8.90;79.60
38684;DHT22;24910;53.248;-6.134;2023-01-08T08:23:39;8.80;79.90
38684;DHT22;24910;53.248;-6.134;2023-01-08T08:26:08;8.80;80.20
38684;DHT22;24910;53.248;-6.134;2023-01-08T08:28:38;8.80;80.30
38684;DHT22;24910;53.248;-6.134;2023-01-08T08:31:07;8.80;80.40
38684;DHT22;24910;53.248;-6.134;2023-01-08T08:33:37;8.80;80.50
38684;DHT22;24910;53.248;-6.134;2023-01-08T08:36:07;8.80;80.50
38684;DHT22;24910;53.248;-6.134;2023-01-08T08:38:36;8.80;80.50
38684;DHT22;24910;53.248;-6.134;2023-01-08T08:41:07;8.80;80.50
38684;DHT22;24910;53.248;-6.134;2023-01-08T08:43:36;8.80;80.60
38684;DHT22;24910;53.248;-6.134;2023-01-08T08:46:07;8.80;80.60
38684;DHT22;24910;53.248;-6.134;2023-01-08T08:48:38;8.80;80.50
38684;DHT22;24910;53.248;-6.134;2023-01-08T08:51:07;8.80;80.50
38684;DHT22;24910;53.248;-6.134;2023-01-08T08:53:36;8.80;80.50
38684;DHT22;24910;53.248;-6.134;2023-01-08T08:56:06;8.80;80.40
38684;DHT22;24910;53.248;-6.134;2023-01-08T08:58:35;8.80;80.40
38684;DHT22;24910;53.248;-6.134;2023-01-08T09:01:04;8.80;80.30
38684;DHT22;24910;53.248;-6.134;2023-01-08T09:03:36;8.80;80.10
38684;DHT22;24910;53.248;-6.134;2023-01-08T09:06:06;8.80;79.90
38684;DHT22;24910;53.248;-6.134;2023-01-08T09:08:39;8.80;79.80
38684;DHT22;24910;53.248;-6.134;2023-01-08T09:11:09;8.80;79.50
38684;DHT22;24910;53.248;-6.134;2023-01-08T09:13:40;8.80;79.30
38684;DHT22;24910;53.248;-6.134;2023-01-08T09:16:09;8.80;79.30
38684;DHT22;24910;53.248;-6.134;2023-01-08T09:18:40;8.90;79.20
38684;DHT22;24910;53.248;-6.134;2023-01-08T09:21:09;8.90;79.10
38684;DHT22;24910;53.248;-6.134;2023-01-08T09:23:38;9.00;79.00
38684;DHT22;24910;53.248;-6.134;2023-01-08T09:26:08;9.00;78.90
38684;DHT22;24910;53.248;-6.134;2023-01-08T09:28:37;9.00;78.80
38684;DHT22;24910;53.248;-6.134;2023-01-08T09:31:06;9.00;78.70
38684;DHT22;24910;53.248;-6.134;2023-01-08T09:33:35;9.00;78.70
38684;DHT22;24910;53.248;-6.134;2023-01-08T09:36:08;9.00;78.60
38684;DHT22;24910;53.248;-6.134;2023-01-08T09:38:37;9.00;78.60
38684;DHT22;24910;53.248;-6.134;2023-01-08T09:41:10;8.90;78.60
38684;DHT22;24910;53.248;-6.134;2023-01-08T09:43:41;8.90;78.50
38684;DHT22;24910;53.248;-6.134;2023-01-08T09:46:13;8.80;78.30
38684;DHT22;24910;53.248;-6.134;2023-01-08T09:48:44;8.80;78.30
38684;DHT22;24910;53.248;-6.134;2023-01-08T09:51:17;8.90;78.30
38684;DHT22;24910;53.248;-6.134;2023-01-08T09:53:53;8.80;78.20
38684;DHT22;24910;53.248;-6.134;2023-01-08T09:56:22;8.80;78.20
38684;DHT22;24910;53.248;-6.134;2023-01-08T09:58:53;8.70;78.20
38684;DHT22;24910;53.248;-6.134;2023-01-08T10:01:25;8.70;78.20
38684;DHT22;24910;53.248;-6.134;2023-01-08T10:03:58;8.70;78.10
38684;DHT22;24910;53.248;-6.134;2023-01-08T10:06:32;8.70;77.90
38684;DHT22;24910;53.248;-6.134;2023-01-08T10:09:01;8.70;77.70
38684;DHT22;24910;53.248;-6.134;2023-01-08T10:11:38;8.80;78.50
38684;DHT22;24910;53.248;-6.134;2023-01-08T10:14:20;8.80;77.40
38684;DHT22;24910;53.248;-6.134;2023-01-08T10:16:54;8.70;77.20
38684;DHT22;24910;53.248;-6.134;2023-01-08T10:19:25;8.70;77.30
38684;DHT22;24910;53.248;-6.134;2023-01-08T10:21:55;8.80;77.10
38684;DHT22;24910;53.248;-6.134;2023-01-08T10:24:33;8.80;76.90
38684;DHT22;24910;53.248;-6.134;2023-01-08T10:27:06;8.90;76.60
38684;DHT22;24910;53.248;-6.134;2023-01-08T10:29:36;9.00;76.30
38684;DHT22;24910;53.248;-6.134;2023-01-08T10:32:13;9.00;75.80
38684;DHT22;24910;53.248;-6.134;2023-01-08T10:34:45;9.00;75.70
38684;DHT22;24910;53.248;-6.134;2023-01-08T10:37:22;9.10;75.50
38684;DHT22;24910;53.248;-6.134;2023-01-08T10:39:53;9.20;75.10
38684;DHT22;24910;53.248;-6.134;2023-01-08T10:42:23;9.30;74.90
38684;DHT22;24910;53.248;-6.134;2023-01-08T10:44:56;9.40;74.50
38684;DHT22;24910;53.248;-6.134;2023-01-08T10:47:29;9.40;74.20
38684;DHT22;24910;53.248;-6.134;2023-01-08T10:50:02;9.50;74.00
38684;DHT22;24910;53.248;-6.134;2023-01-08T10:52:33;9.50;73.70
38684;DHT22;24910;53.248;-6.134;2023-01-08T10:55:21;9.60;73.40
38684;DHT22;24910;53.248;-6.134;2023-01-08T10:57:58;9.60;73.00
38684;DHT22;24910;53.248;-6.134;2023-01-08T11:00:29;9.60;72.80
38684;DHT22;24910;53.248;-6.134;2023-01-08T11:03:00;9.60;72.60
38684;DHT22;24910;53.248;-6.134;2023-01-08T11:05:34;9.60;72.40
38684;DHT22;24910;53.248;-6.134;2023-01-08T11:08:11;9.60;72.20
38684;DHT22;24910;53.248;-6.134;2023-01-08T11:10:43;9.60;72.00
38684;DHT22;24910;53.248;-6.134;2023-01-08T11:13:20;9.60;71.80
38684;DHT22;24910;53.248;-6.134;2023-01-08T11:15:59;9.60;71.60
38684;DHT22;24910;53.248;-6.134;2023-01-08T11:18:30;9.70;71.30
38684;DHT22;24910;53.248;-6.134;2023-01-08T11:21:07;9.70;71.10
38684;DHT22;24910;53.248;-6.134;2023-01-08T11:23:38;9.70;70.90
38684;DHT22;24910;53.248;-6.134;2023-01-08T11:26:10;9.70;70.70
38684;DHT22;24910;53.248;-6.134;2023-01-08T11:28:48;9.70;70.50
38684;DHT22;24910;53.248;-6.134;2023-01-08T11:31:24;9.70;70.30
38684;DHT22;24910;53.248;-6.134;2023-01-08T11:34:04;9.80;70.20
38684;DHT22;24910;53.248;-6.134;2023-01-08T11:36:36;9.70;70.00
38684;DHT22;24910;53.248;-6.134;2023-01-08T11:39:08;9.70;69.90
38684;DHT22;24910;53.248;-6.134;2023-01-08T11:41:49;9.80;70.00
38684;DHT22;24910;53.248;-6.134;2023-01-08T11:44:32;9.80;69.80
38684;DHT22;24910;53.248;-6.134;2023-01-08T11:47:11;9.80;69.60
38684;DHT22;24910;53.248;-6.134;2023-01-08T11:49:59;9.90;69.50
38684;DHT22;24910;53.248;-6.134;2023-01-08T11:52:40;9.90;69.20
38684;DHT22;24910;53.248;-6.134;2023-01-08T11:55:23;10.00;69.10
38684;DHT22;24910;53.248;-6.134;2023-01-08T11:58:03;10.00;68.80
38684;DHT22;24910;53.248;-6.134;2023-01-08T12:00:50;10.10;68.50
38684;DHT22;24910;53.248;-6.134;2023-01-08T12:03:29;10.00;68.40
38684;DHT22;24910;53.248;-6.134;2023-01-08T12:06:12;10.10;68.40
38684;DHT22;24910;53.248;-6.134;2023-01-08T12:08:53;10.00;68.20
38684;DHT22;24910;53.248;-6.134;2023-01-08T12:11:26;10.00;68.20
38684;DHT22;24910;53.248;-6.134;2023-01-08T12:14:11;9.90;68.30
38684;DHT22;24910;53.248;-6.134;2023-01-08T12:16:57;9.90;68.30
38684;DHT22;24910;53.248;-6.134;2023-01-08T12:19:55;9.80;68.30
38684;DHT22;24910;53.248;-6.134;2023-01-08T12:22:35;9.80;68.30
38684;DHT22;24910;53.248;-6.134;2023-01-08T12:25:21;9.80;68.50
38684;DHT22;24910;53.248;-6.134;2023-01-08T12:28:05;9.70;68.40
38684;DHT22;24910;53.248;-6.134;2023-01-08T12:30:46;9.70;68.60
38684;DHT22;24910;53.248;-6.134;2023-01-08T12:33:21;9.70;68.80
38684;DHT22;24910;53.248;-6.134;2023-01-08T12:35:54;9.60;68.90
38684;DHT22;24910;53.248;-6.134;2023-01-08T12:38:27;9.60;69.10
38684;DHT22;24910;53.248;-6.134;2023-01-08T12:41:00;9.60;69.20
38684;DHT22;24910;53.248;-6.134;2023-01-08T12:43:41;9.60;69.30
38684;DHT22;24910;53.248;-6.134;2023-01-08T12:46:13;9.60;69.40
38684;DHT22;24910;53.248;-6.134;2023-01-08T12:48:45;9.60;69.50
38684;DHT22;24910;53.248;-6.134;2023-01-08T12:51:25;9.60;69.60
38684;DHT22;24910;53.248;-6.134;2023-01-08T12:54:04;9.50;69.70
38684;DHT22;24910;53.248;-6.134;2023-01-08T12:56:42;9.50;69.80
38684;DHT22;24910;53.248;-6.134;2023-01-08T12:59:22;9.50;70.00
38684;DHT22;24910;53.248;-6.134;2023-01-08T13:01:58;9.50;70.00
38684;DHT22;24910;53.248;-6.134;2023-01-08T13:04:39;9.50;70.00
38684;DHT22;24910;53.248;-6.134;2023-01-08T13:07:15;9.60;70.00
38684;DHT22;24910;53.248;-6.134;2023-01-08T13:09:54;9.50;70.00
38684;DHT22;24910;53.248;-6.134;2023-01-08T13:12:31;9.60;70.10
38684;DHT22;24910;53.248;-6.134;2023-01-08T13:15:03;9.60;70.10
38684;DHT22;24910;53.248;-6.134;2023-01-08T13:17:33;9.60;70.10
38684;DHT22;24910;53.248;-6.134;2023-01-08T13:20:04;9.60;70.20
38684;DHT22;24910;53.248;-6.134;2023-01-08T13:22:36;9.70;70.30
38684;DHT22;24910;53.248;-6.134;2023-01-08T13:25:30;9.60;70.40
38684;DHT22;24910;53.248;-6.134;2023-01-08T13:28:01;9.60;70.40
38684;DHT22;24910;53.248;-6.134;2023-01-08T13:30:46;9.60;70.60
38684;DHT22;24910;53.248;-6.134;2023-01-08T13:33:35;9.70;70.80
38684;DHT22;24910;53.248;-6.134;2023-01-08T13:36:20;9.70;70.90
38684;DHT22;24910;53.248;-6.134;2023-01-08T13:39:05;9.80;70.90
38684;DHT22;24910;53.248;-6.134;2023-01-08T13:41:57;9.90;70.90
38684;DHT22;24910;53.248;-6.134;2023-01-08T13:44:28;9.90;71.00
38684;DHT22;24910;53.248;-6.134;2023-01-08T13:47:00;10.00;71.10
38684;DHT22;24910;53.248;-6.134;2023-01-08T13:49:33;10.00;71.10
38684;DHT22;24910;53.248;-6.134;2023-01-08T13:52:03;10.00;71.00
38684;DHT22;24910;53.248;-6.134;2023-01-08T13:54:36;10.10;71.00
38684;DHT22;24910;53.248;-6.134;2023-01-08T13:57:12;10.10;71.00
38684;DHT22;24910;53.248;-6.134;2023-01-08T13:59:47;10.20;71.00
38684;DHT22;24910;53.248;-6.134;2023-01-08T14:02:29;10.20;71.00
38684;DHT22;24910;53.248;-6.134;2023-01-08T14:05:00;10.20;71.00
38684;DHT22;24910;53.248;-6.134;2023-01-08T14:07:30;10.30;71.90
38684;DHT22;24910;53.248;-6.134;2023-01-08T14:10:06;10.30;71.10
38684;DHT22;24910;53.248;-6.134;2023-01-08T14:12:38;10.30;71.10
38684;DHT22;24910;53.248;-6.134;2023-01-08T14:15:14;10.30;71.10
38684;DHT22;24910;53.248;-6.134;2023-01-08T14:17:46;10.40;71.20
38684;DHT22;24910;53.248;-6.134;2023-01-08T14:20:30;10.40;71.20
38684;DHT22;24910;53.248;-6.134;2023-01-08T14:23:00;10.40;71.20
38684;DHT22;24910;53.248;-6.134;2023-01-08T14:25:31;10.40;71.10
38684;DHT22;24910;53.248;-6.134;2023-01-08T14:28:04;10.50;71.20
38684;DHT22;24910;53.248;-6.134;2023-01-08T14:30:34;10.50;71.10
38684;DHT22;24910;53.248;-6.134;2023-01-08T14:33:13;10.50;71.10
38684;DHT22;24910;53.248;-6.134;2023-01-08T14:35:45;10.50;71.20
38684;DHT22;24910;53.248;-6.134;2023-01-08T14:38:14;10.50;71.20
38684;DHT22;24910;53.248;-6.134;2023-01-08T14:40:46;10.50;71.10
38684;DHT22;24910;53.248;-6.134;2023-01-08T14:43:23;10.60;71.20
38684;DHT22;24910;53.248;-6.134;2023-01-08T14:45:53;10.50;71.20
38684;DHT22;24910;53.248;-6.134;2023-01-08T14:48:29;10.50;71.20
38684;DHT22;24910;53.248;-6.134;2023-01-08T14:51:10;10.50;71.20
38684;DHT22;24910;53.248;-6.134;2023-01-08T14:53:43;10.50;71.30
38684;DHT22;24910;53.248;-6.134;2023-01-08T14:56:15;10.50;71.30
38684;DHT22;24910;53.248;-6.134;2023-01-08T14:58:45;10.50;71.40
38684;DHT22;24910;53.248;-6.134;2023-01-08T15:01:16;10.50;71.50
38684;DHT22;24910;53.248;-6.134;2023-01-08T15:03:48;10.50;71.50
38684;DHT22;24910;53.248;-6.134;2023-01-08T15:06:25;10.40;71.60
38684;DHT22;24910;53.248;-6.134;2023-01-08T15:08:55;10.40;71.80
38684;DHT22;24910;53.248;-6.134;2023-01-08T15:11:26;10.40;72.00
38684;DHT22;24910;53.248;-6.134;2023-01-08T15:13:58;10.30;72.00
38684;DHT22;24910;53.248;-6.134;2023-01-08T15:16:30;10.30;72.00
38684;DHT22;24910;53.248;-6.134;2023-01-08T15:19:04;10.30;72.10
38684;DHT22;24910;53.248;-6.134;2023-01-08T15:21:34;10.20;72.20
38684;DHT22;24910;53.248;-6.134;2023-01-08T15:24:05;10.20;72.30
38684;DHT22;24910;53.248;-6.134;2023-01-08T15:26:39;10.20;72.30
38684;DHT22;24910;53.248;-6.134;2023-01-08T15:29:17;10.20;72.30
38684;DHT22;24910;53.248;-6.134;2023-01-08T15:31:47;10.20;72.30
38684;DHT22;24910;53.248;-6.134;2023-01-08T15:34:18;10.20;72.50
38684;DHT22;24910;53.248;-6.134;2023-01-08T15:36:47;10.20;72.60
38684;DHT22;24910;53.248;-6.134;2023-01-08T15:39:16;10.10;72.80
38684;DHT22;24910;53.248;-6.134;2023-01-08T15:41:45;10.10;73.00
38684;DHT22;24910;53.248;-6.134;2023-01-08T15:44:32;10.10;73.10
38684;DHT22;24910;53.248;-6.134;2023-01-08T15:47:02;10.00;73.20
38684;DHT22;24910;53.248;-6.134;2023-01-08T15:49:32;10.00;73.30
38684;DHT22;24910;53.248;-6.134;2023-01-08T15:52:02;9.90;73.50
38684;DHT22;24910;53.248;-6.134;2023-01-08T15:54:31;9.90;73.70
38684;DHT22;24910;53.248;-6.134;2023-01-08T15:57:00;9.90;73.90
38684;DHT22;24910;53.248;-6.134;2023-01-08T15:59:29;9.80;73.90